sensor_id;sensor_type;location;lat;lon;timestamp;pressure;altitude;pressure_sealevel;temperature;humidity
62789;BME280;66401;42.016;21.454;2023-05-17T00:00:07;97580.28;;;14.47;84.63
62789;BME280;66401;42.016;21.454;2023-05-17T00:02:34;97570.94;;;14.51;84.93
62789;BME280;66401;42.016;21.454;2023-05-17T00:04:59;97568.69;;;14.31;85.89
62789;BME280;66401;42.016;21.454;2023-05-17T00:07:25;97578.69;;;14.46;84.95
62789;BME280;66401;42.016;21.454;2023-05-17T00:09:50;97577.66;;;14.47;84.56
62789;BME280;66401;42.016;21.454;2023-05-17T00:12:16;97574.94;;;14.42;85.14
62789;BME280;66401;42.016;21.454;2023-05-17T00:14:41;97573.00;;;14.38;85.16
62789;BME280;66401;42.016;21.454;2023-05-17T00:17:07;97565.59;;;14.35;85.53
62789;BME280;66401;42.016;21.454;2023-05-17T00:19:32;97562.66;;;14.31;85.86
62789;BME280;66401;42.016;21.454;2023-05-17T00:22:00;97549.00;;;14.29;85.58
62789;BME280;66401;42.016;21.454;2023-05-17T00:24:26;97554.88;;;14.36;85.59
62789;BME280;66401;42.016;21.454;2023-05-17T00:26:51;97542.97;;;14.28;85.70
62789;BME280;66401;42.016;21.454;2023-05-17T00:29:17;97549.00;;;14.29;86.71
62789;BME280;66401;42.016;21.454;2023-05-17T00:31:42;97543.16;;;14.10;87.75
62789;BME280;66401;42.016;21.454;2023-05-17T00:34:08;97544.38;;;14.08;87.88
62789;BME280;66401;42.016;21.454;2023-05-17T00:36:33;97537.19;;;14.15;86.46
62789;BME280;66401;42.016;21.454;2023-05-17T00:38:59;97551.31;;;14.14;86.92
62789;BME280;66401;42.016;21.454;2023-05-17T00:41:25;97543.00;;;14.17;87.80
62789;BME280;66401;42.016;21.454;2023-05-17T00:43:50;97554.06;;;14.19;86.55
62789;BME280;66401;42.016;21.454;2023-05-17T00:46:16;97548.34;;;14.22;86.78
62789;BME280;66401;42.016;21.454;2023-05-17T00:48:42;97562.34;;;14.16;86.59
62789;BME280;66401;42.016;21.454;2023-05-17T00:51:08;97554.94;;;14.24;86.22
62789;BME280;66401;42.016;21.454;2023-05-17T00:53:33;97560.59;;;14.33;85.65
62789;BME280;66401;42.016;21.454;2023-05-17T00:56:01;97573.81;;;14.38;86.06
62789;BME280;66401;42.016;21.454;2023-05-17T00:58:27;97575.41;;;14.39;85.12
62789;BME280;66401;42.016;21.454;2023-05-17T01:00:53;97582.22;;;14.40;84.43
62789;BME280;66401;42.016;21.454;2023-05-17T01:03:19;97572.66;;;14.34;84.91
62789;BME280;66401;42.016;21.454;2023-05-17T01:05:47;97561.53;;;14.27;84.08
62789;BME280;66401;42.016;21.454;2023-05-17T01:08:13;97574.03;;;14.37;84.14
62789;BME280;66401;42.016;21.454;2023-05-17T01:13:39;97583.72;;;14.36;84.83
62789;BME280;66401;42.016;21.454;2023-05-17T01:16:21;97585.28;;;14.37;84.41
62789;BME280;66401;42.016;21.454;2023-05-17T01:24:52;97581.44;;;14.28;84.22
62789;BME280;66401;42.016;21.454;2023-05-17T01:27:24;97595.22;;;14.35;84.16
62789;BME280;66401;42.016;21.454;2023-05-17T01:29:50;97592.03;;;14.33;84.19
62789;BME280;66401;42.016;21.454;2023-05-17T01:32:19;97588.94;;;14.36;83.54
62789;BME280;66401;42.016;21.454;2023-05-17T01:34:45;97585.09;;;14.27;84.11
62789;BME280;66401;42.016;21.454;2023-05-17T01:37:10;97591.94;;;14.28;83.86
62789;BME280;66401;42.016;21.454;2023-05-17T01:39:36;97585.56;;;14.24;83.06
62789;BME280;66401;42.016;21.454;2023-05-17T01:50:34;97600.75;;;13.98;83.71
62789;BME280;66401;42.016;21.454;2023-05-17T01:53:27;97606.91;;;14.04;84.05
62789;BME280;66401;42.016;21.454;2023-05-17T01:55:56;97605.19;;;14.10;83.74
62789;BME280;66401;42.016;21.454;2023-05-17T01:58:25;97591.41;;;13.79;85.28
62789;BME280;66401;42.016;21.454;2023-05-17T02:00:55;97591.91;;;13.53;87.28
62789;BME280;66401;42.016;21.454;2023-05-17T02:03:22;97595.31;;;13.65;86.54
62789;BME280;66401;42.016;21.454;2023-05-17T02:05:48;97590.53;;;13.62;86.34
62789;BME280;66401;42.016;21.454;2023-05-17T02:08:14;97600.22;;;13.73;86.62
62789;BME280;66401;42.016;21.454;2023-05-17T02:10:39;97612.94;;;13.81;86.07
62789;BME280;66401;42.016;21.454;2023-05-17T02:13:05;97618.75;;;13.83;85.26
62789;BME280;66401;42.016;21.454;2023-05-17T02:15:31;97615.19;;;13.89;85.19
62789;BME280;66401;42.016;21.454;2023-05-17T02:17:56;97607.50;;;13.83;85.47
62789;BME280;66401;42.016;21.454;2023-05-17T02:20:22;97608.28;;;13.83;85.58
62789;BME280;66401;42.016;21.454;2023-05-17T02:22:47;97605.75;;;13.88;84.64
62789;BME280;66401;42.016;21.454;2023-05-17T02:25:13;97607.03;;;13.86;85.00
62789;BME280;66401;42.016;21.454;2023-05-17T02:27:39;97597.25;;;13.81;85.64
62789;BME280;66401;42.016;21.454;2023-05-17T02:30:05;97601.00;;;13.85;85.31
62789;BME280;66401;42.016;21.454;2023-05-17T02:32:31;97598.03;;;13.70;85.83
62789;BME280;66401;42.016;21.454;2023-05-17T02:34:57;97609.19;;;13.77;85.13
62789;BME280;66401;42.016;21.454;2023-05-17T02:37:23;97607.59;;;13.76;84.99
62789;BME280;66401;42.016;21.454;2023-05-17T02:39:48;97616.69;;;13.62;85.09
62789;BME280;66401;42.016;21.454;2023-05-17T02:42:15;97619.41;;;13.55;86.07
62789;BME280;66401;42.016;21.454;2023-05-17T02:44:41;97615.44;;;13.53;85.83
62789;BME280;66401;42.016;21.454;2023-05-17T02:47:06;97610.06;;;13.48;85.99
62789;BME280;66401;42.016;21.454;2023-05-17T02:49:32;97613.63;;;13.41;86.11
62789;BME280;66401;42.016;21.454;2023-05-17T02:51:57;97618.91;;;13.23;86.50
62789;BME280;66401;42.016;21.454;2023-05-17T02:54:25;97612.03;;;13.10;87.45
62789;BME280;66401;42.016;21.454;2023-05-17T02:56:50;97629.25;;;13.30;86.17
62789;BME280;66401;42.016;21.454;2023-05-17T02:59:16;97629.63;;;13.33;86.17
62789;BME280;66401;42.016;21.454;2023-05-17T03:01:41;97623.47;;;13.39;85.71
62789;BME280;66401;42.016;21.454;2023-05-17T03:04:07;97623.88;;;13.13;86.74
62789;BME280;66401;42.016;21.454;2023-05-17T03:06:32;97626.16;;;13.21;87.04
62789;BME280;66401;42.016;21.454;2023-05-17T03:08:58;97625.47;;;13.14;87.73
62789;BME280;66401;42.016;21.454;2023-05-17T03:11:24;97632.19;;;13.22;86.96
62789;BME280;66401;42.016;21.454;2023-05-17T03:13:50;97622.91;;;13.26;85.34
62789;BME280;66401;42.016;21.454;2023-05-17T03:16:16;97631.13;;;13.11;87.48
62789;BME280;66401;42.016;21.454;2023-05-17T03:18:42;97644.06;;;13.06;86.34
62789;BME280;66401;42.016;21.454;2023-05-17T03:21:07;97631.47;;;13.14;86.60
62789;BME280;66401;42.016;21.454;2023-05-17T03:23:33;97633.88;;;13.16;85.83
62789;BME280;66401;42.016;21.454;2023-05-17T03:25:58;97632.00;;;13.23;86.45
62789;BME280;66401;42.016;21.454;2023-05-17T03:28:24;97617.75;;;13.19;86.34
62789;BME280;66401;42.016;21.454;2023-05-17T03:30:49;97627.78;;;13.22;86.24
62789;BME280;66401;42.016;21.454;2023-05-17T03:33:15;97618.19;;;13.16;85.57
62789;BME280;66401;42.016;21.454;2023-05-17T03:35:41;97640.97;;;13.27;85.98
62789;BME280;66401;42.016;21.454;2023-05-17T03:38:06;97646.66;;;13.24;86.35
62789;BME280;66401;42.016;21.454;2023-05-17T03:40:32;97646.09;;;13.22;86.37
62789;BME280;66401;42.016;21.454;2023-05-17T03:42:57;97646.22;;;13.27;85.79
62789;BME280;66401;42.016;21.454;2023-05-17T03:45:23;97645.31;;;13.33;85.90
62789;BME280;66401;42.016;21.454;2023-05-17T03:47:48;97645.88;;;13.35;85.90
62789;BME280;66401;42.016;21.454;2023-05-17T03:50:14;97639.19;;;13.39;85.50
62789;BME280;66401;42.016;21.454;2023-05-17T03:52:39;97646.69;;;13.48;84.29
62789;BME280;66401;42.016;21.454;2023-05-17T03:55:06;97639.41;;;13.50;84.67
62789;BME280;66401;42.016;21.454;2023-05-17T03:57:33;97646.13;;;13.45;84.92
62789;BME280;66401;42.016;21.454;2023-05-17T03:59:59;97648.75;;;13.45;83.61
62789;BME280;66401;42.016;21.454;2023-05-17T04:02:24;97645.91;;;13.47;83.13
62789;BME280;66401;42.016;21.454;2023-05-17T04:04:50;97657.72;;;13.50;83.36
62789;BME280;66401;42.016;21.454;2023-05-17T04:07:17;97656.50;;;13.52;83.79
62789;BME280;66401;42.016;21.454;2023-05-17T04:09:42;97662.28;;;13.42;84.40
62789;BME280;66401;42.016;21.454;2023-05-17T04:12:08;97660.81;;;13.46;83.13
62789;BME280;66401;42.016;21.454;2023-05-17T04:14:37;97655.00;;;13.44;82.19
62789;BME280;66401;42.016;21.454;2023-05-17T04:17:03;97669.59;;;13.52;82.69
62789;BME280;66401;42.016;21.454;2023-05-17T04:19:29;97665.94;;;13.41;83.59
62789;BME280;66401;42.016;21.454;2023-05-17T04:21:54;97667.84;;;13.46;83.47
62789;BME280;66401;42.016;21.454;2023-05-17T04:24:20;97659.91;;;13.53;82.61
62789;BME280;66401;42.016;21.454;2023-05-17T04:26:45;97674.03;;;13.52;82.88
62789;BME280;66401;42.016;21.454;2023-05-17T04:29:11;97665.41;;;13.63;83.11
62789;BME280;66401;42.016;21.454;2023-05-17T04:31:36;97674.50;;;13.72;82.34
62789;BME280;66401;42.016;21.454;2023-05-17T04:34:02;97675.97;;;13.80;82.28
62789;BME280;66401;42.016;21.454;2023-05-17T04:36:27;97682.59;;;13.82;82.54
62789;BME280;66401;42.016;21.454;2023-05-17T04:38:54;97677.94;;;13.84;82.46
62789;BME280;66401;42.016;21.454;2023-05-17T04:41:20;97684.19;;;13.83;82.20
62789;BME280;66401;42.016;21.454;2023-05-17T04:43:45;97684.41;;;13.93;81.00
62789;BME280;66401;42.016;21.454;2023-05-17T04:46:11;97685.56;;;13.97;81.46
62789;BME280;66401;42.016;21.454;2023-05-17T04:48:36;97681.34;;;13.96;81.60
62789;BME280;66401;42.016;21.454;2023-05-17T04:51:03;97689.09;;;14.03;81.80
62789;BME280;66401;42.016;21.454;2023-05-17T04:53:29;97684.41;;;13.93;81.42
62789;BME280;66401;42.016;21.454;2023-05-17T04:55:56;97680.31;;;13.97;81.77
62789;BME280;66401;42.016;21.454;2023-05-17T04:58:21;97683.06;;;14.02;81.66
62789;BME280;66401;42.016;21.454;2023-05-17T05:00:48;97685.91;;;14.13;81.41
62789;BME280;66401;42.016;21.454;2023-05-17T05:03:14;97683.38;;;14.18;81.90
62789;BME280;66401;42.016;21.454;2023-05-17T05:05:40;97681.25;;;14.03;83.45
62789;BME280;66401;42.016;21.454;2023-05-17T05:08:05;97679.31;;;14.22;82.13
62789;BME280;66401;42.016;21.454;2023-05-17T05:10:31;97682.69;;;14.34;82.84
62789;BME280;66401;42.016;21.454;2023-05-17T05:12:56;97683.50;;;14.46;82.62
62789;BME280;66401;42.016;21.454;2023-05-17T05:15:22;97679.84;;;14.59;81.13
62789;BME280;66401;42.016;21.454;2023-05-17T05:17:48;97673.53;;;14.72;81.03
62789;BME280;66401;42.016;21.454;2023-05-17T05:20:13;97664.16;;;14.76;79.30
62789;BME280;66401;42.016;21.454;2023-05-17T05:22:39;97681.94;;;14.85;78.61
62789;BME280;66401;42.016;21.454;2023-05-17T05:25:05;97675.94;;;14.73;77.76
62789;BME280;66401;42.016;21.454;2023-05-17T05:27:31;97675.84;;;14.56;78.53
62789;BME280;66401;42.016;21.454;2023-05-17T05:29:56;97684.69;;;14.79;78.85
62789;BME280;66401;42.016;21.454;2023-05-17T05:32:22;97687.88;;;14.81;78.40
62789;BME280;66401;42.016;21.454;2023-05-17T05:34:47;97687.59;;;14.94;78.16
62789;BME280;66401;42.016;21.454;2023-05-17T05:37:13;97679.38;;;15.02;78.49
62789;BME280;66401;42.016;21.454;2023-05-17T05:39:38;97698.16;;;15.11;77.74
62789;BME280;66401;42.016;21.454;2023-05-17T05:42:04;97692.41;;;15.14;77.88
62789;BME280;66401;42.016;21.454;2023-05-17T05:44:29;97702.13;;;15.13;78.33
62789;BME280;66401;42.016;21.454;2023-05-17T05:46:56;97697.84;;;15.07;79.41
62789;BME280;66401;42.016;21.454;2023-05-17T05:49:22;97702.41;;;15.00;79.50
62789;BME280;66401;42.016;21.454;2023-05-17T05:51:47;97705.78;;;15.12;79.33
62789;BME280;66401;42.016;21.454;2023-05-17T05:54:13;97689.25;;;15.12;80.43
62789;BME280;66401;42.016;21.454;2023-05-17T05:56:39;97706.31;;;15.26;78.90
62789;BME280;66401;42.016;21.454;2023-05-17T05:59:04;97703.91;;;15.25;78.62
62789;BME280;66401;42.016;21.454;2023-05-17T06:01:30;97685.63;;;15.30;78.37
62789;BME280;66401;42.016;21.454;2023-05-17T06:03:55;97692.50;;;15.48;76.33
62789;BME280;66401;42.016;21.454;2023-05-17T06:06:21;97701.63;;;15.28;76.01
62789;BME280;66401;42.016;21.454;2023-05-17T06:08:47;97698.84;;;15.35;76.09
62789;BME280;66401;42.016;21.454;2023-05-17T06:11:12;97698.44;;;15.43;75.66
62789;BME280;66401;42.016;21.454;2023-05-17T06:13:38;97691.50;;;15.20;76.51
62789;BME280;66401;42.016;21.454;2023-05-17T06:16:04;97704.84;;;15.47;76.59
62789;BME280;66401;42.016;21.454;2023-05-17T06:18:30;97698.44;;;15.71;76.62
62789;BME280;66401;42.016;21.454;2023-05-17T06:20:56;97699.22;;;15.89;75.30
62789;BME280;66401;42.016;21.454;2023-05-17T06:23:22;97693.88;;;16.17;74.79
62789;BME280;66401;42.016;21.454;2023-05-17T06:25:47;97695.81;;;16.44;73.66
62789;BME280;66401;42.016;21.454;2023-05-17T06:28:13;97703.97;;;16.64;72.75
62789;BME280;66401;42.016;21.454;2023-05-17T06:30:38;97692.56;;;16.75;71.63
62789;BME280;66401;42.016;21.454;2023-05-17T06:33:04;97711.22;;;16.96;69.31
62789;BME280;66401;42.016;21.454;2023-05-17T06:35:29;97708.22;;;17.09;69.74
62789;BME280;66401;42.016;21.454;2023-05-17T06:37:55;97705.09;;;17.12;67.99
62789;BME280;66401;42.016;21.454;2023-05-17T06:40:20;97714.47;;;17.30;68.16
62789;BME280;66401;42.016;21.454;2023-05-17T06:42:46;97715.41;;;17.45;67.74
62789;BME280;66401;42.016;21.454;2023-05-17T06:45:11;97715.03;;;17.59;66.45
62789;BME280;66401;42.016;21.454;2023-05-17T06:47:37;97716.16;;;17.68;66.03
62789;BME280;66401;42.016;21.454;2023-05-17T06:50:02;97714.97;;;17.81;66.40
62789;BME280;66401;42.016;21.454;2023-05-17T06:52:28;97720.50;;;17.84;64.30
62789;BME280;66401;42.016;21.454;2023-05-17T06:54:53;97717.22;;;17.99;64.56
62789;BME280;66401;42.016;21.454;2023-05-17T06:57:19;97720.97;;;18.08;64.88
62789;BME280;66401;42.016;21.454;2023-05-17T06:59:44;97722.38;;;18.21;63.38
62789;BME280;66401;42.016;21.454;2023-05-17T07:02:10;97716.69;;;18.39;63.78
62789;BME280;66401;42.016;21.454;2023-05-17T07:04:35;97718.56;;;18.44;62.02
62789;BME280;66401;42.016;21.454;2023-05-17T07:07:01;97709.66;;;18.55;61.55
62789;BME280;66401;42.016;21.454;2023-05-17T07:09:27;97704.13;;;18.62;60.29
62789;BME280;66401;42.016;21.454;2023-05-17T07:11:53;97712.13;;;18.67;61.32
62789;BME280;66401;42.016;21.454;2023-05-17T07:14:18;97707.44;;;18.84;61.34
62789;BME280;66401;42.016;21.454;2023-05-17T07:16:43;97705.84;;;18.83;60.09
62789;BME280;66401;42.016;21.454;2023-05-17T07:19:09;97711.09;;;18.78;60.70
62789;BME280;66401;42.016;21.454;2023-05-17T07:21:35;97694.78;;;18.86;61.53
62789;BME280;66401;42.016;21.454;2023-05-17T07:24:00;97698.53;;;19.05;62.14
62789;BME280;66401;42.016;21.454;2023-05-17T07:26:26;97690.34;;;19.07;61.01
62789;BME280;66401;42.016;21.454;2023-05-17T07:28:51;97698.53;;;19.05;60.37
62789;BME280;66401;42.016;21.454;2023-05-17T07:31:17;97706.75;;;19.19;60.31
62789;BME280;66401;42.016;21.454;2023-05-17T07:33:43;97700.44;;;19.30;60.83
62789;BME280;66401;42.016;21.454;2023-05-17T07:36:08;97698.34;;;19.42;61.39
62789;BME280;66401;42.016;21.454;2023-05-17T07:38:34;97704.28;;;18.82;60.66
62789;BME280;66401;42.016;21.454;2023-05-17T07:41:00;97693.25;;;19.05;60.94
62789;BME280;66401;42.016;21.454;2023-05-17T07:43:26;97697.72;;;18.95;61.11
62789;BME280;66401;42.016;21.454;2023-05-17T07:45:52;97696.66;;;18.96;58.90
62789;BME280;66401;42.016;21.454;2023-05-17T07:48:17;97685.91;;;19.28;60.19
62789;BME280;66401;42.016;21.454;2023-05-17T07:50:43;97688.06;;;19.51;59.70
62789;BME280;66401;42.016;21.454;2023-05-17T07:53:08;97686.50;;;19.65;58.14
62789;BME280;66401;42.016;21.454;2023-05-17T07:55:34;97690.44;;;19.78;58.00
62789;BME280;66401;42.016;21.454;2023-05-17T07:57:59;97688.88;;;20.08;56.19
62789;BME280;66401;42.016;21.454;2023-05-17T08:00:25;97681.69;;;20.23;56.99
62789;BME280;66401;42.016;21.454;2023-05-17T08:02:50;97682.22;;;20.20;56.18
62789;BME280;66401;42.016;21.454;2023-05-17T08:05:16;97684.31;;;20.34;56.30
62789;BME280;66401;42.016;21.454;2023-05-17T08:07:41;97684.00;;;20.55;56.40
62789;BME280;66401;42.016;21.454;2023-05-17T08:10:07;97672.19;;;20.07;53.24
62789;BME280;66401;42.016;21.454;2023-05-17T08:12:33;97671.41;;;20.07;55.42
62789;BME280;66401;42.016;21.454;2023-05-17T08:15:04;97668.97;;;20.25;54.27
62789;BME280;66401;42.016;21.454;2023-05-17T08:17:29;97678.19;;;20.53;56.42
62789;BME280;66401;42.016;21.454;2023-05-17T08:19:55;97657.31;;;20.52;53.06
62789;BME280;66401;42.016;21.454;2023-05-17T08:22:20;97665.47;;;20.66;49.72
62789;BME280;66401;42.016;21.454;2023-05-17T08:24:46;97666.22;;;20.71;51.98
62789;BME280;66401;42.016;21.454;2023-05-17T08:27:11;97664.53;;;20.96;54.30
62789;BME280;66401;42.016;21.454;2023-05-17T08:29:37;97664.34;;;21.21;52.90
62789;BME280;66401;42.016;21.454;2023-05-17T08:32:03;97660.66;;;21.27;51.73
62789;BME280;66401;42.016;21.454;2023-05-17T08:34:28;97648.91;;;21.38;51.29
62789;BME280;66401;42.016;21.454;2023-05-17T08:36:54;97669.41;;;21.62;51.99
62789;BME280;66401;42.016;21.454;2023-05-17T08:39:20;97662.38;;;21.81;53.33
62789;BME280;66401;42.016;21.454;2023-05-17T08:41:46;97664.94;;;21.86;52.24
62789;BME280;66401;42.016;21.454;2023-05-17T08:44:13;97656.97;;;21.91;50.47
62789;BME280;66401;42.016;21.454;2023-05-17T08:46:39;97663.38;;;21.85;47.32
62789;BME280;66401;42.016;21.454;2023-05-17T08:49:08;97654.31;;;21.91;47.80
62789;BME280;66401;42.016;21.454;2023-05-17T08:51:37;97658.38;;;21.79;49.25
62789;BME280;66401;42.016;21.454;2023-05-17T08:54:04;97660.44;;;21.87;49.25
62789;BME280;66401;42.016;21.454;2023-05-17T08:56:34;97665.31;;;21.40;49.54
62789;BME280;66401;42.016;21.454;2023-05-17T08:59:01;97660.63;;;21.22;49.42
62789;BME280;66401;42.016;21.454;2023-05-17T09:01:29;97648.88;;;21.43;50.30
62789;BME280;66401;42.016;21.454;2023-05-17T09:03:55;97661.75;;;21.16;50.55
62789;BME280;66401;42.016;21.454;2023-05-17T09:06:21;97651.66;;;21.23;49.60
62789;BME280;66401;42.016;21.454;2023-05-17T09:08:52;97651.34;;;21.35;48.48
62789;BME280;66401;42.016;21.454;2023-05-17T09:11:28;97655.97;;;21.09;48.30
62789;BME280;66401;42.016;21.454;2023-05-17T09:14:14;97649.53;;;21.20;50.73
62789;BME280;66401;42.016;21.454;2023-05-17T09:16:42;97643.34;;;21.40;47.91
62789;BME280;66401;42.016;21.454;2023-05-17T09:19:13;97637.13;;;21.55;48.57
62789;BME280;66401;42.016;21.454;2023-05-17T09:21:39;97639.22;;;21.87;51.21
62789;BME280;66401;42.016;21.454;2023-05-17T09:24:05;97639.38;;;22.00;50.73
62789;BME280;66401;42.016;21.454;2023-05-17T09:26:41;97634.97;;;22.20;49.99
62789;BME280;66401;42.016;21.454;2023-05-17T09:29:11;97634.53;;;22.08;46.71
62789;BME280;66401;42.016;21.454;2023-05-17T09:31:37;97611.38;;;21.89;47.78
62789;BME280;66401;42.016;21.454;2023-05-17T09:34:03;97626.03;;;21.82;48.26
62789;BME280;66401;42.016;21.454;2023-05-17T09:36:31;97619.09;;;21.57;48.78
62789;BME280;66401;42.016;21.454;2023-05-17T09:38:59;97622.34;;;21.49;48.64
62789;BME280;66401;42.016;21.454;2023-05-17T09:41:29;97619.09;;;21.57;51.87
62789;BME280;66401;42.016;21.454;2023-05-17T09:44:07;97618.34;;;21.80;50.11
62789;BME280;66401;42.016;21.454;2023-05-17T09:46:38;97599.31;;;22.02;48.61
62789;BME280;66401;42.016;21.454;2023-05-17T09:49:05;97605.78;;;22.20;50.50
62789;BME280;66401;42.016;21.454;2023-05-17T09:51:35;97605.38;;;22.32;48.71
62789;BME280;66401;42.016;21.454;2023-05-17T09:54:01;97604.69;;;22.45;47.99
62789;BME280;66401;42.016;21.454;2023-05-17T09:56:30;97586.63;;;22.66;47.67
62789;BME280;66401;42.016;21.454;2023-05-17T09:58:56;97599.09;;;23.08;45.97
62789;BME280;66401;42.016;21.454;2023-05-17T10:01:27;97599.75;;;23.32;45.43
62789;BME280;66401;42.016;21.454;2023-05-17T10:03:53;97598.19;;;23.64;46.30
62789;BME280;66401;42.016;21.454;2023-05-17T10:06:23;97585.53;;;23.75;43.50
62789;BME280;66401;42.016;21.454;2023-05-17T10:08:54;97590.38;;;23.54;44.37
62789;BME280;66401;42.016;21.454;2023-05-17T10:11:33;97580.22;;;23.42;44.01
62789;BME280;66401;42.016;21.454;2023-05-17T10:14:12;97574.28;;;23.64;46.47
62789;BME280;66401;42.016;21.454;2023-05-17T10:16:40;97584.78;;;23.55;47.26
62789;BME280;66401;42.016;21.454;2023-05-17T10:19:07;97574.47;;;23.02;46.24
62789;BME280;66401;42.016;21.454;2023-05-17T10:21:36;97569.16;;;23.02;45.75
62789;BME280;66401;42.016;21.454;2023-05-17T10:24:02;97563.19;;;22.92;45.10
62789;BME280;66401;42.016;21.454;2023-05-17T10:26:31;97554.78;;;23.03;45.66
62789;BME280;66401;42.016;21.454;2023-05-17T10:28:59;97551.34;;;23.35;48.15
62789;BME280;66401;42.016;21.454;2023-05-17T10:31:28;97553.00;;;23.64;44.76
62789;BME280;66401;42.016;21.454;2023-05-17T10:33:55;97533.69;;;23.58;44.12
62789;BME280;66401;42.016;21.454;2023-05-17T10:36:23;97549.50;;;23.96;45.84
62789;BME280;66401;42.016;21.454;2023-05-17T10:38:50;97538.84;;;24.10;44.69
62789;BME280;66401;42.016;21.454;2023-05-17T10:41:17;97533.81;;;24.36;44.47
62789;BME280;66401;42.016;21.454;2023-05-17T10:43:44;97537.09;;;24.33;42.50
62789;BME280;66401;42.016;21.454;2023-05-17T10:46:18;97537.53;;;24.62;42.92
62789;BME280;66401;42.016;21.454;2023-05-17T10:48:47;97526.00;;;24.53;42.34
62789;BME280;66401;42.016;21.454;2023-05-17T10:51:21;97525.81;;;24.22;42.39
62789;BME280;66401;42.016;21.454;2023-05-17T10:56:33;97519.91;;;23.56;45.55
62789;BME280;66401;42.016;21.454;2023-05-17T11:04:36;97518.56;;;23.59;42.92
62789;BME280;66401;42.016;21.454;2023-05-17T11:09:49;97521.06;;;23.50;44.67
62789;BME280;66401;42.016;21.454;2023-05-17T11:12:27;97517.72;;;23.58;44.27
62789;BME280;66401;42.016;21.454;2023-05-17T11:14:53;97512.78;;;23.38;42.58
62789;BME280;66401;42.016;21.454;2023-05-17T11:17:22;97519.34;;;23.73;43.58
62789;BME280;66401;42.016;21.454;2023-05-17T11:22:53;97514.03;;;24.14;44.66
62789;BME280;66401;42.016;21.454;2023-05-17T11:25:19;97501.84;;;23.86;42.17
62789;BME280;66401;42.016;21.454;2023-05-17T11:27:47;97520.31;;;23.91;42.78
62789;BME280;66401;42.016;21.454;2023-05-17T11:30:20;97508.91;;;23.90;42.51
62789;BME280;66401;42.016;21.454;2023-05-17T11:32:52;97504.97;;;24.02;41.89
62789;BME280;66401;42.016;21.454;2023-05-17T11:35:22;97510.06;;;24.25;42.65
62789;BME280;66401;42.016;21.454;2023-05-17T11:37:54;97504.94;;;24.43;41.98
62789;BME280;66401;42.016;21.454;2023-05-17T11:40:37;97492.59;;;24.69;39.80
62789;BME280;66401;42.016;21.454;2023-05-17T11:43:16;97492.03;;;24.72;41.29
62789;BME280;66401;42.016;21.454;2023-05-17T11:45:53;97474.81;;;24.78;40.98
62789;BME280;66401;42.016;21.454;2023-05-17T11:48:23;97479.56;;;24.81;42.86
62789;BME280;66401;42.016;21.454;2023-05-17T11:50:50;97475.94;;;24.41;42.29
62789;BME280;66401;42.016;21.454;2023-05-17T11:53:16;97461.34;;;24.39;40.46
62789;BME280;66401;42.016;21.454;2023-05-17T11:55:49;97459.81;;;24.24;41.17
62789;BME280;66401;42.016;21.454;2023-05-17T11:58:17;97470.09;;;24.03;40.61
62789;BME280;66401;42.016;21.454;2023-05-17T12:00:43;97464.09;;;23.97;41.60
62789;BME280;66401;42.016;21.454;2023-05-17T12:03:21;97466.06;;;23.92;41.84
62789;BME280;66401;42.016;21.454;2023-05-17T12:05:48;97460.16;;;23.95;41.10
62789;BME280;66401;42.016;21.454;2023-05-17T12:08:15;97465.31;;;24.27;42.12
62789;BME280;66401;42.016;21.454;2023-05-17T12:10:49;97460.28;;;24.26;39.97
62789;BME280;66401;42.016;21.454;2023-05-17T12:13:16;97450.13;;;24.42;39.02
62789;BME280;66401;42.016;21.454;2023-05-17T12:15:50;97452.84;;;24.95;38.69
62789;BME280;66401;42.016;21.454;2023-05-17T12:18:18;97450.44;;;25.38;38.01
62789;BME280;66401;42.016;21.454;2023-05-17T12:20:58;97451.50;;;25.29;36.33
62789;BME280;66401;42.016;21.454;2023-05-17T12:23:29;97446.06;;;25.43;36.81
62789;BME280;66401;42.016;21.454;2023-05-17T12:26:05;97444.56;;;25.28;37.15
62789;BME280;66401;42.016;21.454;2023-05-17T12:30:57;97442.72;;;23.89;38.52
62789;BME280;66401;42.016;21.454;2023-05-17T12:33:25;97443.34;;;24.22;40.77
62789;BME280;66401;42.016;21.454;2023-05-17T12:35:53;97439.69;;;24.32;40.48
62789;BME280;66401;42.016;21.454;2023-05-17T12:38:19;97440.06;;;24.39;38.79
62789;BME280;66401;42.016;21.454;2023-05-17T12:40:44;97430.41;;;24.43;39.18
62789;BME280;66401;42.016;21.454;2023-05-17T12:43:10;97426.97;;;24.65;40.36
62789;BME280;66401;42.016;21.454;2023-05-17T12:45:36;97419.53;;;24.53;40.56
62789;BME280;66401;42.016;21.454;2023-05-17T12:48:01;97416.66;;;24.49;37.99
62789;BME280;66401;42.016;21.454;2023-05-17T12:50:28;97408.94;;;24.62;39.92
62789;BME280;66401;42.016;21.454;2023-05-17T12:52:56;97407.84;;;24.26;35.66
62789;BME280;66401;42.016;21.454;2023-05-17T12:55:22;97407.19;;;23.85;36.91
62789;BME280;66401;42.016;21.454;2023-05-17T12:57:52;97407.09;;;23.62;36.60
62789;BME280;66401;42.016;21.454;2023-05-17T13:00:18;97406.38;;;23.43;37.94
62789;BME280;66401;42.016;21.454;2023-05-17T13:02:44;97392.41;;;23.51;38.88
62789;BME280;66401;42.016;21.454;2023-05-17T13:05:14;97394.88;;;23.61;38.21
62789;BME280;66401;42.016;21.454;2023-05-17T13:07:40;97402.75;;;23.53;38.07
62789;BME280;66401;42.016;21.454;2023-05-17T13:10:21;97396.63;;;23.52;35.52
62789;BME280;66401;42.016;21.454;2023-05-17T13:12:57;97391.72;;;23.87;34.58
62789;BME280;66401;42.016;21.454;2023-05-17T13:15:32;97389.84;;;23.74;37.56
62789;BME280;66401;42.016;21.454;2023-05-17T13:17:58;97385.63;;;23.73;36.71
62789;BME280;66401;42.016;21.454;2023-05-17T13:20:27;97382.66;;;23.88;36.71
62789;BME280;66401;42.016;21.454;2023-05-17T13:22:53;97375.91;;;24.04;36.29